ANA788 RJFU-RJOO
Flight info
| Callsign | ANA788 |
|---|---|
| Flight time | 0h 49m |
| Altitude | 30998 |
| Route | OOITA Y23 SPIDE Y231 MIRIO Y401 KAINA Y753 IZUMI |
| Aircraft | B738/M-SDE2E3FGHIRWXY/LB1 |
Departure
| Time | 2026-04-22 13:26 |
|---|---|
| Airport | Nagasaki Airport (RJFU) |
Arrival
| Time | 2026-04-22 14:16 |
|---|---|
| Airport | Osaka Itami International Airport (RJOO) |
| Time | Latitude | Longitude | Altitude | Speed | Heading |
|---|---|---|---|---|---|
| 2026-04-22 13:07 | 32.91373 | 129.92181 | 12 ft | 0 kts | 47° |
| 2026-04-22 13:14 | 32.91373 | 129.92180 | 12 ft | 1 kts | 47° |
| 2026-04-22 13:14 | 32.91360 | 129.92164 | 13 ft | 2 kts | 47° |
| 2026-04-22 13:15 | 32.91343 | 129.92141 | 12 ft | 4 kts | 52° |
| 2026-04-22 13:15 | 32.91327 | 129.92115 | 12 ft | 4 kts | 56° |
| 2026-04-22 13:15 | 32.91312 | 129.92088 | 10 ft | 4 kts | 57° |
| 2026-04-22 13:15 | 32.91296 | 129.92063 | 13 ft | 4 kts | 32° |
| 2026-04-22 13:16 | 32.91283 | 129.92060 | 14 ft | 4 kts | 317° |
| 2026-04-22 13:16 | 32.91269 | 129.92075 | 12 ft | 0 kts | 317° |
| 2026-04-22 13:20 | 32.91290 | 129.92052 | 14 ft | 7 kts | 317° |
| 2026-04-22 13:20 | 32.91324 | 129.92015 | 12 ft | 7 kts | 317° |
| 2026-04-22 13:20 | 32.91365 | 129.91973 | 13 ft | 11 kts | 319° |
| 2026-04-22 13:21 | 32.91434 | 129.91901 | 15 ft | 13 kts | 319° |
| 2026-04-22 13:21 | 32.91502 | 129.91829 | 15 ft | 13 kts | 315° |
| 2026-04-22 13:21 | 32.91566 | 129.91756 | 13 ft | 13 kts | 317° |
| 2026-04-22 13:21 | 32.91630 | 129.91688 | 11 ft | 12 kts | 318° |
| 2026-04-22 13:22 | 32.91700 | 129.91614 | 10 ft | 15 kts | 318° |
| 2026-04-22 13:22 | 32.91780 | 129.91528 | 10 ft | 15 kts | 317° |
| 2026-04-22 13:22 | 32.91857 | 129.91446 | 8 ft | 15 kts | 319° |
| 2026-04-22 13:22 | 32.91933 | 129.91366 | 7 ft | 14 kts | 318° |
| 2026-04-22 13:23 | 32.92005 | 129.91290 | 9 ft | 14 kts | 318° |
| 2026-04-22 13:23 | 32.92073 | 129.91216 | 10 ft | 13 kts | 317° |
| 2026-04-22 13:23 | 32.92146 | 129.91134 | 10 ft | 16 kts | 316° |
| 2026-04-22 13:23 | 32.92233 | 129.91045 | 13 ft | 17 kts | 319° |
| 2026-04-22 13:24 | 32.92331 | 129.90941 | 13 ft | 21 kts | 318° |
| 2026-04-22 13:24 | 32.92446 | 129.90816 | 13 ft | 23 kts | 317° |
| 2026-04-22 13:24 | 32.92561 | 129.90694 | 8 ft | 22 kts | 318° |
| 2026-04-22 13:24 | 32.92673 | 129.90574 | 10 ft | 21 kts | 317° |
| 2026-04-22 13:25 | 32.92777 | 129.90452 | 9 ft | 21 kts | 296° |
| 2026-04-22 13:25 | 32.92714 | 129.90317 | 9 ft | 20 kts | 206° |
| 2026-04-22 13:25 | 32.92597 | 129.90381 | 10 ft | 20 kts | 139° |
| 2026-04-22 13:25 | 32.92414 | 129.90574 | 11 ft | 70 kts | 137° |
| 2026-04-22 13:26 | 32.91833 | 129.91193 | 18 ft | 151 kts | 140° |
| 2026-04-22 13:26 | 32.90978 | 129.92048 | 788 ft | 161 kts | 140° |
| 2026-04-22 13:26 | 32.90169 | 129.92888 | 1983 ft | 155 kts | 134° |
| 2026-04-22 13:26 | 32.89394 | 129.93744 | 3067 ft | 152 kts | 140° |
| 2026-04-22 13:27 | 32.88575 | 129.94641 | 3774 ft | 175 kts | 141° |
| 2026-04-22 13:27 | 32.87579 | 129.95718 | 4058 ft | 210 kts | 141° |
| 2026-04-22 13:27 | 32.86425 | 129.96965 | 4335 ft | 239 kts | 141° |
| 2026-04-22 13:27 | 32.85135 | 129.98348 | 4835 ft | 259 kts | 141° |
| 2026-04-22 13:28 | 32.83779 | 129.99803 | 5807 ft | 263 kts | 142° |
| 2026-04-22 13:28 | 32.82416 | 130.01262 | 6843 ft | 266 kts | 143° |
| 2026-04-22 13:28 | 32.81015 | 130.02754 | 7752 ft | 273 kts | 144° |
| 2026-04-22 13:28 | 32.79580 | 130.04278 | 8665 ft | 280 kts | 144° |
| 2026-04-22 13:29 | 32.78279 | 130.05996 | 9634 ft | 294 kts | 123° |
| 2026-04-22 13:29 | 32.77732 | 130.08418 | 10364 ft | 317 kts | 98° |
| 2026-04-22 13:29 | 32.77969 | 130.11114 | 10946 ft | 340 kts | 75° |
| 2026-04-22 13:29 | 32.79032 | 130.13649 | 11712 ft | 348 kts | 53° |
| 2026-04-22 13:30 | 32.80759 | 130.15668 | 12551 ft | 350 kts | 36° |
| 2026-04-22 13:30 | 32.82739 | 130.17370 | 13407 ft | 353 kts | 32° |
| 2026-04-22 13:30 | 32.84788 | 130.18982 | 14303 ft | 349 kts | 29° |
| 2026-04-22 13:30 | 32.86808 | 130.20519 | 15380 ft | 342 kts | 30° |
| 2026-04-22 13:31 | 32.88772 | 130.22077 | 16173 ft | 346 kts | 31° |
| 2026-04-22 13:31 | 32.90750 | 130.23736 | 16875 ft | 352 kts | 32° |
| 2026-04-22 13:31 | 32.92781 | 130.25495 | 17187 ft | 371 kts | 33° |
| 2026-04-22 13:31 | 32.94916 | 130.27373 | 17372 ft | 391 kts | 35° |
| 2026-04-22 13:32 | 32.96869 | 130.29710 | 17804 ft | 407 kts | 52° |
| 2026-04-22 13:32 | 32.98235 | 130.32676 | 18426 ft | 412 kts | 69° |
| 2026-04-22 13:32 | 32.98971 | 130.35983 | 19010 ft | 415 kts | 78° |
| 2026-04-22 13:32 | 32.99543 | 130.39371 | 19528 ft | 420 kts | 80° |
| 2026-04-22 13:33 | 33.00097 | 130.42803 | 20032 ft | 425 kts | 80° |
| 2026-04-22 13:33 | 33.00661 | 130.46224 | 20629 ft | 427 kts | 79° |
| 2026-04-22 13:33 | 33.01256 | 130.49707 | 21186 ft | 432 kts | 79° |
| 2026-04-22 13:33 | 33.01874 | 130.53238 | 21613 ft | 438 kts | 78° |
| 2026-04-22 13:34 | 33.02508 | 130.56812 | 22094 ft | 443 kts | 78° |
| 2026-04-22 13:34 | 33.03148 | 130.60414 | 22616 ft | 447 kts | 78° |
| 2026-04-22 13:34 | 33.03794 | 130.64066 | 23092 ft | 452 kts | 79° |
| 2026-04-22 13:34 | 33.04442 | 130.67741 | 23535 ft | 456 kts | 79° |
| 2026-04-22 13:35 | 33.05093 | 130.71451 | 23893 ft | 459 kts | 79° |
| 2026-04-22 13:35 | 33.05739 | 130.75145 | 24286 ft | 463 kts | 79° |
| 2026-04-22 13:35 | 33.06396 | 130.78902 | 24688 ft | 465 kts | 79° |
| 2026-04-22 13:35 | 33.07057 | 130.82694 | 25076 ft | 469 kts | 79° |
| 2026-04-22 13:36 | 33.07723 | 130.86520 | 25385 ft | 475 kts | 79° |
| 2026-04-22 13:36 | 33.08396 | 130.90389 | 25791 ft | 477 kts | 79° |
| 2026-04-22 13:36 | 33.09068 | 130.94265 | 26191 ft | 478 kts | 79° |
| 2026-04-22 13:36 | 33.09743 | 130.98161 | 26526 ft | 482 kts | 79° |
| 2026-04-22 13:37 | 33.10423 | 131.02093 | 26861 ft | 486 kts | 79° |
| 2026-04-22 13:37 | 33.11096 | 131.05993 | 27198 ft | 489 kts | 79° |
| 2026-04-22 13:37 | 33.11784 | 131.09988 | 27549 ft | 492 kts | 79° |
| 2026-04-22 13:37 | 33.12472 | 131.13996 | 27892 ft | 495 kts | 79° |
| 2026-04-22 13:38 | 33.13163 | 131.18024 | 28310 ft | 496 kts | 79° |
| 2026-04-22 13:38 | 33.14552 | 131.26152 | 28861 ft | 504 kts | 80° |
| 2026-04-22 13:38 | 33.15252 | 131.30256 | 29187 ft | 506 kts | 80° |
| 2026-04-22 13:39 | 33.15955 | 131.34393 | 29438 ft | 510 kts | 80° |
| 2026-04-22 13:39 | 33.16659 | 131.38539 | 29808 ft | 510 kts | 79° |
| 2026-04-22 13:39 | 33.17362 | 131.42688 | 30139 ft | 510 kts | 79° |
| 2026-04-22 13:39 | 33.18065 | 131.46848 | 30369 ft | 513 kts | 79° |
| 2026-04-22 13:40 | 33.18772 | 131.51037 | 30579 ft | 516 kts | 79° |
| 2026-04-22 13:40 | 33.19472 | 131.55199 | 30808 ft | 519 kts | 79° |
| 2026-04-22 13:40 | 33.20181 | 131.59421 | 30967 ft | 522 kts | 79° |
| 2026-04-22 13:40 | 33.20898 | 131.63702 | 30963 ft | 529 kts | 79° |
| 2026-04-22 13:41 | 33.22569 | 131.72346 | 30958 ft | 540 kts | 70° |
| 2026-04-22 13:41 | 33.25376 | 131.80657 | 30960 ft | 539 kts | 66° |
| 2026-04-22 13:42 | 33.28292 | 131.88899 | 30965 ft | 538 kts | 66° |
| 2026-04-22 13:42 | 33.31118 | 131.97117 | 30964 ft | 538 kts | 66° |
| 2026-04-22 13:43 | 33.33910 | 132.05400 | 30966 ft | 537 kts | 67° |
| 2026-04-22 13:43 | 33.36690 | 132.13681 | 30979 ft | 538 kts | 67° |
| 2026-04-22 13:44 | 33.39497 | 132.22042 | 31308 ft | 542 kts | 67° |
| 2026-04-22 13:44 | 33.40896 | 132.26215 | 31675 ft | 539 kts | 67° |
| 2026-04-22 13:44 | 33.42269 | 132.30315 | 31985 ft | 538 kts | 67° |
| 2026-04-22 13:45 | 33.43659 | 132.34473 | 32234 ft | 539 kts | 67° |
| 2026-04-22 13:45 | 33.45054 | 132.38642 | 32410 ft | 541 kts | 67° |
| 2026-04-22 13:45 | 33.46455 | 132.42827 | 32624 ft | 542 kts | 67° |
| 2026-04-22 13:45 | 33.47859 | 132.47020 | 32921 ft | 541 kts | 67° |
| 2026-04-22 13:46 | 33.49257 | 132.51199 | 33264 ft | 540 kts | 67° |
| 2026-04-22 13:46 | 33.50650 | 132.55371 | 33555 ft | 540 kts | 67° |
| 2026-04-22 13:46 | 33.52045 | 132.59557 | 33793 ft | 541 kts | 67° |
| 2026-04-22 13:46 | 33.53421 | 132.63694 | 34050 ft | 542 kts | 67° |
| 2026-04-22 13:47 | 33.54814 | 132.67886 | 34347 ft | 541 kts | 67° |
| 2026-04-22 13:47 | 33.56203 | 132.72073 | 34675 ft | 539 kts | 67° |
| 2026-04-22 13:47 | 33.57584 | 132.76239 | 34964 ft | 538 kts | 67° |
| 2026-04-22 13:47 | 33.58968 | 132.80424 | 34986 ft | 541 kts | 67° |
| 2026-04-22 13:48 | 33.61739 | 132.88814 | 34999 ft | 540 kts | 67° |
| 2026-04-22 13:48 | 33.64420 | 132.97227 | 34993 ft | 541 kts | 72° |
| 2026-04-22 13:49 | 33.65832 | 133.06009 | 34987 ft | 540 kts | 83° |
| 2026-04-22 13:49 | 33.66888 | 133.14932 | 34969 ft | 540 kts | 83° |
| 2026-04-22 13:50 | 33.68008 | 133.23849 | 34992 ft | 541 kts | 82° |
| 2026-04-22 13:50 | 33.69178 | 133.32768 | 34977 ft | 541 kts | 82° |
| 2026-04-22 13:51 | 33.70336 | 133.41631 | 34971 ft | 541 kts | 82° |
| 2026-04-22 13:51 | 33.71490 | 133.50556 | 34998 ft | 541 kts | 82° |
| 2026-04-22 13:52 | 33.72650 | 133.59488 | 34905 ft | 543 kts | 82° |
| 2026-04-22 13:52 | 33.73236 | 133.63985 | 34323 ft | 546 kts | 82° |
| 2026-04-22 13:52 | 33.73820 | 133.68487 | 33683 ft | 543 kts | 82° |
| 2026-04-22 13:53 | 33.74390 | 133.72895 | 32997 ft | 541 kts | 82° |
| 2026-04-22 13:53 | 33.74965 | 133.77363 | 32303 ft | 539 kts | 82° |
| 2026-04-22 13:53 | 33.75534 | 133.81798 | 31636 ft | 537 kts | 82° |
| 2026-04-22 13:53 | 33.76102 | 133.86241 | 30940 ft | 536 kts | 82° |
| 2026-04-22 13:54 | 33.76665 | 133.90656 | 30186 ft | 535 kts | 82° |
| 2026-04-22 13:54 | 33.77225 | 133.95066 | 29353 ft | 533 kts | 82° |
| 2026-04-22 13:54 | 33.77780 | 133.99442 | 28521 ft | 532 kts | 82° |
| 2026-04-22 13:54 | 33.78334 | 134.03829 | 27638 ft | 529 kts | 82° |
| 2026-04-22 13:55 | 33.78884 | 134.08189 | 26810 ft | 527 kts | 82° |
| 2026-04-22 13:55 | 33.79422 | 134.12476 | 25952 ft | 525 kts | 82° |
| 2026-04-22 13:55 | 33.79966 | 134.16807 | 25042 ft | 525 kts | 81° |
| 2026-04-22 13:55 | 33.80526 | 134.21140 | 24333 ft | 520 kts | 79° |
| 2026-04-22 13:56 | 33.81407 | 134.25310 | 23652 ft | 512 kts | 70° |
| 2026-04-22 13:56 | 33.82763 | 134.29224 | 22965 ft | 501 kts | 61° |
| 2026-04-22 13:56 | 33.84345 | 134.32908 | 22295 ft | 493 kts | 60° |
| 2026-04-22 13:56 | 33.85923 | 134.36551 | 21607 ft | 486 kts | 61° |
| 2026-04-22 13:57 | 33.87455 | 134.40149 | 20958 ft | 480 kts | 61° |
| 2026-04-22 13:57 | 33.88942 | 134.43710 | 20302 ft | 474 kts | 62° |
| 2026-04-22 13:57 | 33.90375 | 134.47192 | 19649 ft | 468 kts | 62° |
| 2026-04-22 13:57 | 33.91807 | 134.50679 | 19024 ft | 462 kts | 62° |
| 2026-04-22 13:58 | 33.93244 | 134.54148 | 17965 ft | 467 kts | 62° |
| 2026-04-22 13:58 | 33.94706 | 134.57659 | 16920 ft | 469 kts | 62° |
| 2026-04-22 13:58 | 33.96142 | 134.61116 | 16412 ft | 456 kts | 62° |
| 2026-04-22 13:58 | 33.97549 | 134.64502 | 15877 ft | 446 kts | 62° |
| 2026-04-22 13:59 | 33.98908 | 134.67779 | 15649 ft | 429 kts | 62° |
| 2026-04-22 13:59 | 34.00204 | 134.70913 | 15455 ft | 406 kts | 62° |
| 2026-04-22 13:59 | 34.01428 | 134.73896 | 15158 ft | 400 kts | 62° |
| 2026-04-22 13:59 | 34.02678 | 134.76959 | 14957 ft | 419 kts | 62° |
| 2026-04-22 14:00 | 34.03997 | 134.80198 | 14727 ft | 438 kts | 62° |
| 2026-04-22 14:00 | 34.05344 | 134.83513 | 14496 ft | 441 kts | 62° |
| 2026-04-22 14:00 | 34.06682 | 134.86818 | 14269 ft | 436 kts | 62° |
| 2026-04-22 14:00 | 34.08009 | 134.90097 | 14034 ft | 434 kts | 62° |
| 2026-04-22 14:01 | 34.09329 | 134.93358 | 13811 ft | 433 kts | 62° |
| 2026-04-22 14:01 | 34.10649 | 134.96621 | 13553 ft | 431 kts | 63° |
| 2026-04-22 14:01 | 34.11942 | 134.99818 | 13301 ft | 430 kts | 62° |
| 2026-04-22 14:01 | 34.13252 | 135.03063 | 13031 ft | 429 kts | 62° |
| 2026-04-22 14:02 | 34.14557 | 135.06296 | 12775 ft | 428 kts | 62° |
| 2026-04-22 14:02 | 34.15856 | 135.09517 | 12497 ft | 422 kts | 62° |
| 2026-04-22 14:02 | 34.17115 | 135.12646 | 12200 ft | 407 kts | 62° |
| 2026-04-22 14:02 | 34.18335 | 135.15676 | 11882 ft | 395 kts | 62° |
| 2026-04-22 14:03 | 34.19516 | 135.18614 | 11559 ft | 384 kts | 63° |
| 2026-04-22 14:03 | 34.20660 | 135.21462 | 11116 ft | 368 kts | 63° |
| 2026-04-22 14:03 | 34.21964 | 135.24030 | 10779 ft | 350 kts | 47° |
| 2026-04-22 14:03 | 34.23670 | 135.25938 | 10510 ft | 330 kts | 31° |
| 2026-04-22 14:04 | 34.25531 | 135.27467 | 10231 ft | 317 kts | 29° |
| 2026-04-22 14:04 | 34.27342 | 135.28907 | 9971 ft | 306 kts | 29° |
| 2026-04-22 14:04 | 34.29096 | 135.30300 | 9704 ft | 297 kts | 30° |
| 2026-04-22 14:04 | 34.30822 | 135.31683 | 9459 ft | 299 kts | 30° |
| 2026-04-22 14:05 | 34.32557 | 135.33077 | 9214 ft | 299 kts | 30° |
| 2026-04-22 14:05 | 34.34281 | 135.34475 | 8950 ft | 297 kts | 31° |
| 2026-04-22 14:05 | 34.37672 | 135.37285 | 8428 ft | 293 kts | 31° |
| 2026-04-22 14:06 | 34.39341 | 135.38622 | 8200 ft | 290 kts | 31° |
| 2026-04-22 14:06 | 34.41009 | 135.39972 | 7962 ft | 287 kts | 32° |
| 2026-04-22 14:06 | 34.42661 | 135.41319 | 7716 ft | 285 kts | 32° |
| 2026-04-22 14:06 | 34.44208 | 135.42796 | 7459 ft | 284 kts | 50° |
| 2026-04-22 14:07 | 34.45239 | 135.44818 | 7273 ft | 281 kts | 61° |
| 2026-04-22 14:07 | 34.46173 | 135.46888 | 7011 ft | 279 kts | 61° |
| 2026-04-22 14:07 | 34.47100 | 135.48939 | 6764 ft | 277 kts | 61° |
| 2026-04-22 14:07 | 34.48023 | 135.50971 | 6542 ft | 274 kts | 61° |
| 2026-04-22 14:08 | 34.48929 | 135.52957 | 6318 ft | 272 kts | 61° |
| 2026-04-22 14:08 | 34.49842 | 135.54951 | 6074 ft | 269 kts | 61° |
| 2026-04-22 14:08 | 34.50749 | 135.56926 | 5844 ft | 267 kts | 61° |
| 2026-04-22 14:08 | 34.51645 | 135.58879 | 5613 ft | 264 kts | 61° |
| 2026-04-22 14:09 | 34.52537 | 135.60821 | 5388 ft | 262 kts | 61° |
| 2026-04-22 14:09 | 34.53419 | 135.62741 | 5184 ft | 260 kts | 61° |
| 2026-04-22 14:09 | 34.54483 | 135.64488 | 4943 ft | 258 kts | 38° |
| 2026-04-22 14:09 | 34.56092 | 135.65358 | 4756 ft | 253 kts | 9° |
| 2026-04-22 14:10 | 34.57832 | 135.65509 | 4565 ft | 249 kts | 359° |
| 2026-04-22 14:10 | 34.59532 | 135.65490 | 4354 ft | 240 kts | 355° |
| 2026-04-22 14:10 | 34.61034 | 135.64867 | 4122 ft | 230 kts | 320° |
| 2026-04-22 14:10 | 34.62113 | 135.63517 | 3991 ft | 217 kts | 312° |
| 2026-04-22 14:11 | 34.63171 | 135.62218 | 3841 ft | 219 kts | 314° |
| 2026-04-22 14:11 | 34.64254 | 135.60918 | 3570 ft | 218 kts | 314° |
| 2026-04-22 14:11 | 34.65317 | 135.59633 | 3303 ft | 213 kts | 314° |
| 2026-04-22 14:11 | 34.66339 | 135.58393 | 3016 ft | 201 kts | 314° |
| 2026-04-22 14:12 | 34.67300 | 135.57226 | 2737 ft | 190 kts | 314° |
| 2026-04-22 14:12 | 34.68218 | 135.56111 | 2495 ft | 189 kts | 313° |
| 2026-04-22 14:12 | 34.69147 | 135.54983 | 2244 ft | 186 kts | 314° |
| 2026-04-22 14:12 | 34.70034 | 135.53907 | 2019 ft | 174 kts | 314° |
| 2026-04-22 14:13 | 34.70872 | 135.52890 | 1788 ft | 166 kts | 313° |
| 2026-04-22 14:13 | 34.71685 | 135.51903 | 1573 ft | 166 kts | 313° |
| 2026-04-22 14:13 | 34.72499 | 135.50914 | 1349 ft | 165 kts | 314° |
| 2026-04-22 14:13 | 34.73283 | 135.49964 | 1131 ft | 156 kts | 314° |
| 2026-04-22 14:14 | 34.74037 | 135.49048 | 939 ft | 153 kts | 314° |
| 2026-04-22 14:14 | 34.74789 | 135.48129 | 780 ft | 153 kts | 315° |
| 2026-04-22 14:14 | 34.75530 | 135.47236 | 564 ft | 151 kts | 314° |
| 2026-04-22 14:14 | 34.76267 | 135.46345 | 361 ft | 150 kts | 315° |
| 2026-04-22 14:15 | 34.77008 | 135.45441 | 146 ft | 152 kts | 315° |
| 2026-04-22 14:15 | 34.77732 | 135.44565 | 50 ft | 136 kts | 313° |
| 2026-04-22 14:15 | 34.78264 | 135.43920 | 51 ft | 77 kts | 314° |
| 2026-04-22 14:15 | 34.78563 | 135.43577 | 48 ft | 54 kts | 326° |
| 2026-04-22 14:16 | 34.78769 | 135.43466 | 49 ft | 24 kts | 335° |
| 2026-04-22 14:16 | 34.78924 | 135.43425 | 49 ft | 23 kts | 7° |
| 2026-04-22 14:16 | 34.79056 | 135.43512 | 49 ft | 22 kts | 63° |
| 2026-04-22 14:16 | 34.79013 | 135.43671 | 49 ft | 22 kts | 135° |
| 2026-04-22 14:17 | 34.78908 | 135.43799 | 46 ft | 21 kts | 135° |
| 2026-04-22 14:17 | 34.78807 | 135.43922 | 47 ft | 20 kts | 135° |
| 2026-04-22 14:17 | 34.78729 | 135.44053 | 49 ft | 20 kts | 81° |
| 2026-04-22 14:17 | 34.78791 | 135.44065 | 48 ft | 10 kts | 339° |
| 2026-04-22 14:18 | 34.78843 | 135.44111 | 49 ft | 10 kts | 53° |
| 2026-04-22 14:18 | 34.78854 | 135.44129 | 49 ft | 0 kts | 54° |